Time;durP1;ratioP1;P1;durP2;ratioP2;P2;SDS_P1;SDS_P2;PMS_P1;PMS_P2;Temp;Humidity;BMP_temperature;BMP_pressure;BME280_temperature;BME280_humidity;BME280_pressure;Samples;Min_cycle;Max_cycle;Signal;HPM_P1;HPM_P2
2022/07/03 00:00:19;;;;;;;2.03;1.15;;;18.30;99.90;;;;;;4977820;28;25073;-72
2022/07/03 00:02:44;;;;;;;2.55;1.30;;;18.20;99.90;;;;;;4972138;28;25073;-75
2022/07/03 00:05:10;;;;;;;4.38;1.20;;;18.10;99.90;;;;;;4982185;28;25152;-69
2022/07/03 00:07:39;;;;;;;4.22;1.33;;;18.00;99.90;;;;;;4970134;28;25090;-68
2022/07/03 00:10:05;;;;;;;2.25;1.20;;;18.00;99.90;;;;;;4977136;28;25053;-71
2022/07/03 00:12:31;;;;;;;10.45;2.25;;;18.00;99.90;;;;;;4983399;28;25060;-72
2022/07/03 00:14:56;;;;;;;3.70;1.70;;;17.90;99.90;;;;;;4979148;28;25079;-70
2022/07/03 00:17:22;;;;;;;4.35;1.33;;;17.90;99.90;;;;;;4982638;28;25155;-71
2022/07/03 00:19:48;;;;;;;4.75;1.83;;;17.90;99.90;;;;;;4978574;28;25049;-70
2022/07/03 00:22:14;;;;;;;4.53;1.58;;;17.90;99.90;;;;;;4976499;28;25146;-72
2022/07/03 00:24:47;;;;;;;2.75;2.15;;;17.90;99.90;;;;;;4975264;28;25118;-69
2022/07/03 00:27:15;;;;;;;5.32;2.17;;;17.80;99.90;;;;;;4967038;28;25170;-72
2022/07/03 00:29:42;;;;;;;2.67;1.67;;;17.80;99.90;;;;;;4968580;28;25154;-68
2022/07/03 00:32:10;;;;;;;4.57;1.83;;;17.80;99.90;;;;;;4962208;28;25057;-72
2022/07/03 00:34:38;;;;;;;3.72;1.77;;;17.80;99.90;;;;;;4970076;28;25062;-70
2022/07/03 00:37:07;;;;;;;5.03;1.80;;;17.80;99.90;;;;;;4974674;28;25139;-69
2022/07/03 00:39:37;;;;;;;2.67;1.70;;;17.70;99.90;;;;;;4975567;28;25071;-71
2022/07/03 00:42:04;;;;;;;4.35;1.38;;;17.70;99.90;;;;;;4973607;28;25097;-71
2022/07/03 00:44:32;;;;;;;2.78;1.60;;;17.80;99.90;;;;;;4974488;28;25055;-69
2022/07/03 00:47:02;;;;;;;5.90;1.90;;;17.70;99.90;;;;;;4970558;28;25080;-70
2022/07/03 00:49:29;;;;;;;2.42;1.73;;;17.70;99.90;;;;;;4965654;28;25053;-70
2022/07/03 00:51:56;;;;;;;3.38;1.70;;;17.70;99.90;;;;;;4971538;28;25139;-69
2022/07/03 00:54:22;;;;;;;3.83;1.70;;;17.70;99.90;;;;;;4968434;28;25128;-71
2022/07/03 00:56:54;;;;;;;4.50;1.85;;;17.70;99.90;;;;;;4976981;28;25104;-70
2022/07/03 00:59:20;;;;;;;3.17;1.95;;;17.70;99.90;;;;;;4966830;28;25075;-70
2022/07/03 01:01:50;;;;;;;2.53;1.42;;;17.60;99.90;;;;;;4972929;28;25058;-72
2022/07/03 01:04:26;;;;;;;3.03;1.48;;;17.50;99.90;;;;;;4975445;28;25067;-70
2022/07/03 01:07:06;;;;;;;2.60;1.58;;;17.40;99.90;;;;;;4975839;28;25070;-70
2022/07/03 01:10:00;;;;;;;5.20;1.63;;;17.50;99.90;;;;;;4967088;28;25058;-71
2022/07/03 01:12:44;;;;;;;4.50;1.50;;;17.70;99.90;;;;;;4977695;28;25079;-71
2022/07/03 01:15:20;;;;;;;3.42;1.60;;;17.70;99.90;;;;;;4970613;28;25190;-70
2022/07/03 01:17:59;;;;;;;1.83;1.40;;;17.70;99.90;;;;;;4977459;28;25123;-69
2022/07/03 01:20:28;;;;;;;2.22;1.52;;;17.70;99.90;;;;;;4977589;28;25091;-70
2022/07/03 01:23:00;;;;;;;4.38;1.50;;;17.70;99.90;;;;;;4976148;28;25086;-70
2022/07/03 01:25:46;;;;;;;4.97;1.80;;;17.70;99.90;;;;;;4983576;28;25085;-71
2022/07/03 01:28:15;;;;;;;5.20;1.20;;;17.70;99.90;;;;;;4997754;28;25101;-70
2022/07/03 01:30:47;;;;;;;4.60;1.58;;;17.70;99.90;;;;;;4975702;28;25160;-71
2022/07/03 01:33:19;;;;;;;2.15;1.17;;;17.80;99.90;;;;;;4982059;28;25100;-71
2022/07/03 01:36:05;;;;;;;4.32;1.42;;;17.80;99.90;;;;;;4978818;28;25250;-70
2022/07/03 01:38:35;;;;;;;3.42;1.17;;;17.90;99.90;;;;;;4975291;28;25125;-71
2022/07/03 01:41:02;;;;;;;4.55;1.00;;;17.80;99.90;;;;;;4962308;28;25056;-70
2022/07/03 01:43:31;;;;;;;2.00;0.90;;;17.70;99.90;;;;;;4973716;28;25075;-70
2022/07/03 01:45:58;;;;;;;3.72;1.30;;;17.70;99.90;;;;;;4969599;28;25138;-70
2022/07/03 01:48:26;;;;;;;2.22;1.38;;;17.70;99.90;;;;;;4984375;28;25061;-71
2022/07/03 01:50:52;;;;;;;3.70;1.27;;;17.70;99.90;;;;;;4970343;28;25061;-69
2022/07/03 01:53:18;;;;;;;4.00;0.98;;;17.70;99.90;;;;;;4977287;28;25069;-70
2022/07/03 01:55:44;;;;;;;3.17;1.10;;;17.70;99.90;;;;;;4963461;28;25149;-71
2022/07/03 01:58:10;;;;;;;1.88;0.80;;;17.80;99.90;;;;;;4967499;28;25087;-69
2022/07/03 02:00:54;;;;;;;3.78;1.52;;;17.70;99.90;;;;;;4972640;28;25058;-70
2022/07/03 02:03:26;;;;;;;3.17;1.08;;;17.80;99.90;;;;;;4974148;28;25068;-69
2022/07/03 02:06:02;;;;;;;2.97;1.23;;;17.70;99.90;;;;;;4983873;28;25053;-72
2022/07/03 02:09:07;;;;;;;3.58;1.10;;;17.80;99.90;;;;;;4983354;28;25098;-74
2022/07/03 02:11:35;;;;;;;2.25;1.00;;;17.80;99.90;;;;;;4971195;28;25064;-73
2022/07/03 02:14:14;;;;;;;2.05;1.00;;;17.80;99.90;;;;;;4990733;28;25096;-71
2022/07/03 02:17:18;;;;;;;2.28;1.00;;;17.80;99.90;;;;;;4997494;28;25059;-70
2022/07/03 02:19:49;;;;;;;2.35;1.05;;;17.90;99.90;;;;;;4991330;28;25065;-72
2022/07/03 02:22:19;;;;;;;2.97;0.82;;;17.80;99.90;;;;;;4987296;28;25076;-70
2022/07/03 02:24:46;;;;;;;3.65;0.93;;;17.80;99.90;;;;;;4980681;28;25052;-70
2022/07/03 02:27:40;;;;;;;3.50;0.98;;;17.80;99.90;;;;;;4959972;28;25099;-70
2022/07/03 02:30:09;;;;;;;4.90;0.95;;;17.80;99.90;;;;;;4975351;28;25075;-69
2022/07/03 02:32:47;;;;;;;1.92;0.88;;;17.80;99.90;;;;;;4971525;28;25143;-70
2022/07/03 02:35:37;;;;;;;2.38;0.93;;;17.80;99.90;;;;;;4965598;28;25058;-70
2022/07/03 02:38:19;;;;;;;1.73;0.80;;;17.90;99.90;;;;;;4966170;28;25204;-70
2022/07/03 02:40:56;;;;;;;;;;;17.90;99.90;;;;;;4975398;28;25053;-71
2022/07/03 02:43:47;;;;;;;4.93;0.90;;;17.90;99.90;;;;;;4966251;28;25088;-70
2022/07/03 02:46:48;;;;;;;3.97;0.70;;;17.90;99.90;;;;;;4958200;28;25140;-70
2022/07/03 02:49:22;;;;;;;2.35;0.77;;;17.90;99.90;;;;;;4962562;28;25091;-70
2022/07/03 02:52:01;;;;;;;2.92;0.80;;;17.80;99.90;;;;;;4959847;28;25061;-69
2022/07/03 02:54:32;;;;;;;4.95;1.00;;;17.90;99.90;;;;;;4969859;28;25129;-70
2022/07/03 02:57:06;;;;;;;5.63;1.30;;;17.90;99.90;;;;;;4967612;28;25092;-69
2022/07/03 02:59:58;;;;;;;3.97;1.00;;;18.00;99.90;;;;;;4969914;28;25110;-71
2022/07/03 03:02:55;;;;;;;4.03;1.25;;;17.90;99.90;;;;;;4966857;28;25160;-70
2022/07/03 03:05:28;;;;;;;7.88;1.15;;;17.90;99.90;;;;;;4927181;28;1077709;-70
2022/07/03 03:07:56;;;;;;;;;;;17.90;99.90;;;;;;4966879;28;25142;-70
2022/07/03 03:10:21;;;;;;;2.90;1.25;;;17.80;99.90;;;;;;4969628;28;25201;-70
2022/07/03 03:12:57;;;;;;;9.90;1.27;;;17.80;99.90;;;;;;4974289;28;25102;-70
2022/07/03 03:15:27;;;;;;;7.03;1.08;;;17.80;99.90;;;;;;4966926;28;25093;-70
2022/07/03 03:17:56;;;;;;;5.13;1.38;;;17.80;99.90;;;;;;4971646;28;25055;-70
2022/07/03 03:20:29;;;;;;;5.53;1.20;;;17.70;99.90;;;;;;4975050;28;25088;-70
2022/07/03 03:23:24;;;;;;;4.10;1.05;;;17.80;99.90;;;;;;4984210;28;25123;-69
2022/07/03 03:25:52;;;;;;;4.57;1.17;;;17.80;99.90;;;;;;4976835;28;25067;-70
2022/07/03 03:28:18;;;;;;;3.13;1.50;;;17.80;99.90;;;;;;4978033;28;25058;-72
2022/07/03 03:30:44;;;;;;;2.70;0.95;;;17.70;99.90;;;;;;4981721;28;25052;-70
2022/07/03 03:33:10;;;;;;;5.32;1.20;;;17.80;99.90;;;;;;4969527;28;25049;-69
2022/07/03 03:35:36;;;;;;;5.35;1.20;;;17.80;99.90;;;;;;4965044;28;25097;-70
2022/07/03 03:38:03;;;;;;;2.03;1.08;;;17.70;99.90;;;;;;4964950;28;25133;-70
2022/07/03 03:40:29;;;;;;;1.85;0.95;;;17.70;99.90;;;;;;4968203;28;25058;-71
2022/07/03 03:42:54;;;;;;;4.90;1.08;;;17.80;99.90;;;;;;4968574;28;25062;-71
2022/07/03 03:45:20;;;;;;;5.60;1.23;;;17.70;99.90;;;;;;4968375;28;25091;-70
2022/07/03 03:47:46;;;;;;;8.00;1.90;;;17.80;99.90;;;;;;4984313;28;25115;-71
2022/07/03 03:50:11;;;;;;;3.58;0.90;;;17.80;99.90;;;;;;4972705;28;25068;-70
2022/07/03 03:52:37;;;;;;;2.95;1.15;;;17.80;99.90;;;;;;4977218;28;25135;-71
2022/07/03 03:55:03;;;;;;;7.88;2.05;;;17.70;99.90;;;;;;4967772;28;25083;-69
2022/07/03 03:57:29;;;;;;;4.85;0.90;;;17.80;99.90;;;;;;4964596;28;25107;-71
2022/07/03 03:59:56;;;;;;;4.72;1.45;;;17.90;99.90;;;;;;4967069;28;25081;-71
2022/07/03 04:02:22;;;;;;;4.68;1.25;;;17.80;99.90;;;;;;4964059;28;25152;-71
2022/07/03 04:04:47;;;;;;;4.75;1.35;;;17.80;99.90;;;;;;4974070;28;25064;-69
2022/07/03 04:07:13;;;;;;;3.40;1.30;;;17.70;99.90;;;;;;4975993;28;25141;-70
2022/07/03 04:09:38;;;;;;;4.22;1.20;;;17.80;99.90;;;;;;4977457;28;25088;-72
2022/07/03 04:12:04;;;;;;;6.47;1.48;;;17.80;99.90;;;;;;4973176;28;25066;-71
2022/07/03 04:14:31;;;;;;;4.13;1.20;;;17.60;99.90;;;;;;4976574;28;25077;-70
2022/07/03 04:16:56;;;;;;;4.80;1.73;;;17.70;99.90;;;;;;4976948;28;25051;-71
2022/07/03 04:19:22;;;;;;;4.28;1.38;;;17.70;99.90;;;;;;4976741;28;25078;-71
2022/07/03 04:21:49;;;;;;;2.80;1.10;;;17.70;99.90;;;;;;4979113;28;25110;-72
2022/07/03 04:24:15;;;;;;;5.40;1.50;;;17.80;99.90;;;;;;4981822;28;25139;-70
2022/07/03 04:26:40;;;;;;;2.10;1.05;;;17.80;99.90;;;;;;4973131;28;25093;-71
2022/07/03 04:29:06;;;;;;;3.50;1.42;;;17.80;99.90;;;;;;4964607;28;25057;-71
2022/07/03 04:31:32;;;;;;;5.35;1.40;;;17.80;99.90;;;;;;4969909;28;25122;-72
2022/07/03 04:33:57;;;;;;;6.40;1.65;;;17.70;99.90;;;;;;4970761;28;25137;-69
2022/07/03 04:36:23;;;;;;;5.75;1.65;;;17.60;99.90;;;;;;4972953;28;25062;-70
2022/07/03 04:38:48;;;;;;;4.97;1.85;;;17.50;99.90;;;;;;4972821;28;25074;-70
2022/07/03 04:41:14;;;;;;;7.38;1.90;;;17.60;99.90;;;;;;4969218;28;25107;-70
2022/07/03 04:43:39;;;;;;;6.05;2.05;;;17.70;99.90;;;;;;4967712;28;25089;-69
2022/07/03 04:46:05;;;;;;;4.25;1.38;;;17.70;99.90;;;;;;4968695;28;25066;-70
2022/07/03 04:48:31;;;;;;;4.95;2.05;;;17.70;99.90;;;;;;4969135;28;25116;-70
2022/07/03 04:50:57;;;;;;;6.22;1.98;;;17.60;99.90;;;;;;4975171;28;25130;-71
2022/07/03 04:53:23;;;;;;;6.43;2.03;;;17.60;99.90;;;;;;4983268;28;25066;-69
2022/07/03 04:55:48;;;;;;;6.00;2.08;;;17.70;99.90;;;;;;4988889;28;25174;-72
2022/07/03 04:58:14;;;;;;;7.22;1.70;;;17.80;99.90;;;;;;4982808;28;25125;-70
2022/07/03 05:00:43;;;;;;;7.63;2.00;;;17.70;99.90;;;;;;4964699;28;25136;-70
2022/07/03 05:03:08;;;;;;;7.45;1.65;;;17.70;99.90;;;;;;4965284;28;25076;-69
2022/07/03 05:05:34;;;;;;;8.32;2.72;;;17.80;99.90;;;;;;4959855;28;25134;-71
2022/07/03 05:08:00;;;;;;;6.18;1.70;;;17.90;99.90;;;;;;4961203;28;25140;-71
2022/07/03 05:10:26;;;;;;;3.55;1.70;;;17.90;99.90;;;;;;4982332;28;25129;-72
2022/07/03 05:12:51;;;;;;;6.38;1.70;;;18.00;99.90;;;;;;4965172;28;25120;-69
2022/07/03 05:15:17;;;;;;;6.28;2.03;;;18.10;99.90;;;;;;4968748;28;25078;-70
2022/07/03 05:17:43;;;;;;;8.00;2.00;;;18.10;99.90;;;;;;4959529;28;25174;-70
2022/07/03 05:20:23;;;;;;;9.80;2.33;;;18.10;99.90;;;;;;4978069;28;25076;-71
2022/07/03 05:22:53;;;;;;;5.10;2.17;;;18.10;99.90;;;;;;4981201;28;25102;-70
2022/07/03 05:25:19;;;;;;;6.55;1.90;;;18.10;99.90;;;;;;4979358;28;25106;-71
2022/07/03 05:27:45;;;;;;;10.35;1.88;;;18.10;99.90;;;;;;4976060;28;25164;-71
2022/07/03 05:30:11;;;;;;;6.70;1.75;;;18.00;99.90;;;;;;4970277;28;25118;-70
2022/07/03 05:32:37;;;;;;;4.20;1.85;;;18.10;99.90;;;;;;4978046;28;25155;-70
2022/07/03 05:35:03;;;;;;;8.05;2.28;;;18.10;99.90;;;;;;4978964;28;25043;-71
2022/07/03 05:37:29;;;;;;;4.53;1.95;;;18.10;99.90;;;;;;4984626;28;25132;-70
2022/07/03 05:39:55;;;;;;;5.22;2.50;;;18.10;99.90;;;;;;4997203;28;25098;-71
2022/07/03 05:42:21;;;;;;;11.15;3.35;;;18.20;99.90;;;;;;4980095;28;25073;-71
2022/07/03 05:44:46;;;;;;;7.40;2.67;;;18.30;99.90;;;;;;4984727;28;25070;-71
2022/07/03 05:47:12;;;;;;;5.25;2.30;;;18.20;99.90;;;;;;4985377;28;25064;-70
2022/07/03 05:49:37;;;;;;;6.18;3.17;;;18.30;99.90;;;;;;4983445;28;25098;-70
2022/07/03 05:52:03;;;;;;;9.65;2.40;;;18.40;99.90;;;;;;4974609;28;25104;-71
2022/07/03 05:54:29;;;;;;;11.05;3.17;;;18.50;99.90;;;;;;4983407;28;25063;-72
2022/07/03 05:56:54;;;;;;;8.48;3.45;;;18.40;99.90;;;;;;4978307;28;25087;-70
2022/07/03 05:59:20;;;;;;;11.48;3.40;;;18.30;99.90;;;;;;4973603;28;25074;-71
2022/07/03 06:01:46;;;;;;;10.98;3.17;;;18.30;99.90;;;;;;4975282;28;25092;-71
2022/07/03 06:04:11;;;;;;;6.55;2.67;;;18.40;99.90;;;;;;4964464;28;25103;-70
2022/07/03 06:06:37;;;;;;;10.98;2.70;;;18.40;99.90;;;;;;4965685;28;25084;-69
2022/07/03 06:09:03;;;;;;;8.13;2.35;;;18.60;99.90;;;;;;4976015;28;25061;-73
2022/07/03 06:11:28;;;;;;;10.82;3.22;;;18.90;99.90;;;;;;4967153;28;25068;-69
2022/07/03 06:13:54;;;;;;;12.65;4.30;;;18.80;99.90;;;;;;4968788;28;25117;-71
2022/07/03 06:16:20;;;;;;;6.22;2.35;;;18.70;99.90;;;;;;4977514;28;25076;-70
2022/07/03 06:18:46;;;;;;;6.10;2.05;;;18.80;99.90;;;;;;4978580;28;25088;-71
2022/07/03 06:21:11;;;;;;;5.13;2.10;;;18.90;99.90;;;;;;4970509;28;25058;-70
2022/07/03 06:23:37;;;;;;;7.10;2.17;;;19.20;99.90;;;;;;4977438;28;25064;-71
2022/07/03 06:26:02;;;;;;;6.55;1.60;;;19.30;99.90;;;;;;4981741;28;25073;-70
2022/07/03 06:28:28;;;;;;;6.65;2.00;;;19.30;99.90;;;;;;4970078;28;25071;-71
2022/07/03 06:30:54;;;;;;;5.00;2.00;;;19.40;99.90;;;;;;4972865;28;25081;-69
2022/07/03 06:33:19;;;;;;;8.13;2.38;;;19.60;99.90;;;;;;4970715;28;25084;-73
2022/07/03 06:35:45;;;;;;;6.32;2.22;;;19.60;99.90;;;;;;4970865;28;25066;-72
2022/07/03 06:38:10;;;;;;;6.35;1.85;;;19.80;99.90;;;;;;4977550;28;25143;-73
2022/07/03 06:40:36;;;;;;;6.40;1.70;;;19.80;99.90;;;;;;4974427;28;25111;-69
2022/07/03 06:43:02;;;;;;;4.72;1.90;;;20.00;99.90;;;;;;4976148;28;25093;-71
2022/07/03 06:45:27;;;;;;;7.97;1.60;;;20.10;99.90;;;;;;4967018;28;25262;-71
2022/07/03 06:47:53;;;;;;;4.13;1.55;;;20.20;99.90;;;;;;4971245;28;25062;-71
2022/07/03 06:50:19;;;;;;;8.55;2.13;;;20.00;99.90;;;;;;4964667;28;25110;-71
2022/07/03 06:52:44;;;;;;;6.30;1.60;;;20.10;99.90;;;;;;4970162;28;25062;-70
2022/07/03 06:55:10;;;;;;;8.43;1.90;;;20.40;99.90;;;;;;4969213;28;25075;-73
2022/07/03 06:57:35;;;;;;;6.65;1.67;;;20.60;99.90;;;;;;4964301;28;25086;-70
2022/07/03 07:00:01;;;;;;;6.00;2.38;;;20.80;99.90;;;;;;4971514;28;25163;-73
2022/07/03 07:02:27;;;;;;;6.10;1.63;;;20.70;99.90;;;;;;4969081;28;25073;-70
2022/07/03 07:04:52;;;;;;;11.40;2.70;;;20.70;99.90;;;;;;4972081;28;25089;-70
2022/07/03 07:07:18;;;;;;;4.28;1.58;;;21.00;99.90;;;;;;4968694;28;25051;-71
2022/07/03 07:09:43;;;;;;;7.30;1.77;;;21.30;99.90;;;;;;4969284;28;25059;-72
2022/07/03 07:12:09;;;;;;;4.55;1.63;;;21.50;99.90;;;;;;4970059;28;25140;-71
2022/07/03 07:14:35;;;;;;;7.70;1.67;;;21.20;99.90;;;;;;4965755;28;25074;-72
2022/07/03 07:17:01;;;;;;;5.78;2.22;;;21.20;99.90;;;;;;4968293;28;25060;-71
2022/07/03 07:19:26;;;;;;;6.60;1.88;;;20.90;99.90;;;;;;4966753;28;25122;-70
2022/07/03 07:21:52;;;;;;;6.82;1.65;;;20.90;99.90;;;;;;4971890;28;25071;-71
2022/07/03 07:24:17;;;;;;;9.35;2.10;;;20.60;99.90;;;;;;4972350;28;25071;-70
2022/07/03 07:26:43;;;;;;;8.68;2.10;;;20.50;99.90;;;;;;4977869;28;25109;-70
2022/07/03 07:29:09;;;;;;;10.50;1.90;;;20.50;99.90;;;;;;4979118;28;25072;-73
2022/07/03 07:31:34;;;;;;;11.32;2.05;;;20.40;99.90;;;;;;4967960;28;25115;-72
2022/07/03 07:34:00;;;;;;;7.50;2.17;;;20.20;99.90;;;;;;4967414;28;25055;-71
2022/07/03 07:36:25;;;;;;;7.95;2.30;;;20.20;99.90;;;;;;4964913;28;25064;-70
2022/07/03 07:38:51;;;;;;;8.88;2.45;;;20.10;99.90;;;;;;4969044;28;25068;-70
2022/07/03 07:41:16;;;;;;;6.53;1.98;;;20.20;99.90;;;;;;4966574;28;25062;-71
2022/07/03 07:43:42;;;;;;;10.95;2.22;;;20.00;99.90;;;;;;4966594;28;25074;-69
2022/07/03 07:46:08;;;;;;;5.60;2.35;;;19.90;99.90;;;;;;4968388;28;25073;-71
2022/07/03 07:48:36;;;;;;;13.73;2.78;;;19.80;99.90;;;;;;4969433;28;25090;-71
2022/07/03 07:51:02;;;;;;;5.85;1.70;;;19.70;99.90;;;;;;4966654;28;25078;-72
2022/07/03 07:53:27;;;;;;;6.63;1.92;;;19.60;99.90;;;;;;4967766;28;25077;-71
2022/07/03 07:55:53;;;;;;;6.22;2.40;;;19.60;99.90;;;;;;4965290;28;26144;-71
2022/07/03 07:58:19;;;;;;;5.45;2.08;;;19.90;99.90;;;;;;4966581;28;25057;-72
2022/07/03 08:06:16;;;;;;;3.83;2.00;;;20.20;99.90;;;;;;4974930;28;25072;-70
2022/07/03 08:08:41;;;;;;;9.63;2.00;;;20.30;99.90;;;;;;4975026;28;25107;-71
2022/07/03 08:11:07;;;;;;;10.35;2.33;;;20.40;99.90;;;;;;4967267;28;25073;-74
2022/07/03 08:13:33;;;;;;;9.40;2.50;;;20.30;99.90;;;;;;4967297;28;25110;-71
2022/07/03 08:15:59;;;;;;;6.55;1.50;;;20.50;99.90;;;;;;4966335;28;25079;-72
2022/07/03 08:18:24;;;;;;;5.82;2.05;;;20.70;99.90;;;;;;4968483;28;25122;-72
2022/07/03 08:20:50;;;;;;;8.60;1.90;;;20.60;99.90;;;;;;4968955;28;25134;-71
2022/07/03 08:23:16;;;;;;;9.07;2.45;;;20.50;99.90;;;;;;4965640;28;25112;-71
2022/07/03 08:25:42;;;;;;;6.30;1.92;;;20.90;99.90;;;;;;4967382;28;25127;-71
2022/07/03 08:28:07;;;;;;;9.50;2.00;;;20.80;99.90;;;;;;4968936;28;25058;-70
2022/07/03 08:30:33;;;;;;;3.60;1.63;;;20.90;99.90;;;;;;4965673;28;25112;-70
2022/07/03 08:32:59;;;;;;;6.22;2.00;;;21.30;99.90;;;;;;4967518;28;25139;-69
2022/07/03 08:35:25;;;;;;;6.57;2.30;;;21.50;99.90;;;;;;4964195;28;25064;-71
2022/07/03 08:37:52;;;;;;;5.57;2.30;;;21.60;99.90;;;;;;4967169;28;25098;-71
2022/07/03 08:40:19;;;;;;;4.22;1.85;;;21.80;99.90;;;;;;4969701;28;25074;-71
2022/07/03 08:42:48;;;;;;;4.63;1.55;;;21.80;99.90;;;;;;4969558;28;25068;-69
2022/07/03 08:45:16;;;;;;;8.90;2.08;;;21.40;99.90;;;;;;4966197;28;25063;-71
2022/07/03 08:47:44;;;;;;;6.38;1.85;;;21.10;99.90;;;;;;4969244;28;25165;-70
2022/07/03 08:50:12;;;;;;;6.45;1.58;;;20.90;99.90;;;;;;4969223;28;25136;-71
2022/07/03 08:52:38;;;;;;;5.13;1.65;;;21.30;99.90;;;;;;4971146;28;25177;-70
2022/07/03 08:55:05;;;;;;;5.43;1.73;;;21.90;99.90;;;;;;4969687;28;25114;-68
2022/07/03 08:57:36;;;;;;;6.93;1.90;;;21.80;99.90;;;;;;4985507;28;25091;-72
2022/07/03 09:00:05;;;;;;;7.10;1.58;;;21.80;99.90;;;;;;4981903;28;25078;-71
2022/07/03 09:02:33;;;;;;;8.63;2.08;;;21.60;99.90;;;;;;4972466;28;25069;-72
2022/07/03 09:04:59;;;;;;;7.00;2.00;;;21.70;99.90;;;;;;4971819;28;25057;-71
2022/07/03 09:07:34;;;;;;;8.07;1.60;;;21.80;99.90;;;;;;4971486;28;25051;-71
2022/07/03 09:10:01;;;;;;;5.05;1.63;;;21.60;99.90;;;;;;4971021;28;25062;-71
2022/07/03 09:12:29;;;;;;;2.97;1.65;;;21.40;99.90;;;;;;4977310;28;25065;-71
2022/07/03 09:14:55;;;;;;;2.58;1.52;;;21.20;99.90;;;;;;4971184;28;25089;-72
2022/07/03 09:17:21;;;;;;;4.03;1.60;;;21.00;99.90;;;;;;4970841;28;25092;-70
2022/07/03 09:19:48;;;;;;;7.40;1.83;;;21.00;99.90;;;;;;4970908;28;25070;-71
2022/07/03 09:22:28;;;;;;;6.38;1.38;;;21.60;99.90;;;;;;4972736;28;25075;-70
2022/07/03 09:25:02;;;;;;;10.45;2.05;;;22.00;99.90;;;;;;4976708;28;25066;-70
2022/07/03 09:27:28;;;;;;;5.75;1.48;;;22.30;99.90;;;;;;4971729;28;25081;-71
2022/07/03 09:30:05;;;;;;;3.42;1.73;;;22.30;99.90;;;;;;4975351;28;25100;-70
2022/07/03 09:32:36;;;;;;;4.75;1.77;;;22.00;99.90;;;;;;4974771;28;25136;-70
2022/07/03 09:35:15;;;;;;;4.70;1.95;;;22.20;99.90;;;;;;4970660;28;25068;-71
2022/07/03 09:37:47;;;;;;;6.15;1.85;;;21.80;99.90;;;;;;4972164;28;25090;-68
2022/07/03 09:40:13;;;;;;;;;;;21.60;99.90;;;;;;4985940;28;25078;-72
2022/07/03 09:42:38;;;;;;;4.93;1.80;;;22.00;99.90;;;;;;4971759;28;24104;-70
2022/07/03 09:45:04;;;;;;;3.78;1.73;;;22.50;99.90;;;;;;4969617;28;25110;-72
2022/07/03 09:47:30;;;;;;;6.70;1.70;;;22.50;99.90;;;;;;4969402;28;25062;-72
2022/07/03 09:49:58;;;;;;;6.90;1.85;;;22.40;99.90;;;;;;4980379;28;25068;-70
2022/07/03 09:52:41;;;;;;;3.25;1.63;;;22.00;99.90;;;;;;4979357;28;25056;-70
2022/07/03 09:55:09;;;;;;;4.57;2.00;;;21.90;99.90;;;;;;4974570;28;25055;-70
2022/07/03 09:57:50;;;;;;;7.47;2.63;;;22.00;99.90;;;;;;4968505;28;25079;-70
2022/07/03 10:00:25;;;;;;;2.28;1.60;;;22.00;99.90;;;;;;4967654;28;25130;-69
2022/07/03 10:03:05;;;;;;;7.43;2.20;;;21.90;99.90;;;;;;4970803;28;25062;-70
2022/07/03 10:05:36;;;;;;;6.03;1.83;;;21.40;99.90;;;;;;4967833;28;25083;-71
2022/07/03 10:08:05;;;;;;;8.23;2.15;;;21.00;99.90;;;;;;4968631;28;25117;-70
2022/07/03 10:10:33;;;;;;;13.85;4.18;;;20.80;99.90;;;;;;4968591;28;25059;-69
2022/07/03 10:12:59;;;;;;;4.22;1.60;;;20.90;99.90;;;;;;4971893;28;25097;-72
2022/07/03 10:15:27;;;;;;;3.67;1.70;;;20.90;99.90;;;;;;4968343;28;25066;-71
2022/07/03 10:17:56;;;;;;;3.33;1.30;;;21.40;99.90;;;;;;4968614;28;25086;-69
2022/07/03 10:20:27;;;;;;;12.38;2.22;;;22.10;99.90;;;;;;4967399;28;25127;-70
2022/07/03 10:22:54;;;;;;;3.63;1.20;;;23.00;99.90;;;;;;4962872;28;25074;-72
2022/07/03 10:25:20;;;;;;;2.60;1.17;;;23.30;99.90;;;;;;4971339;28;25099;-72
2022/07/03 10:27:49;;;;;;;1.67;1.50;;;23.20;99.90;;;;;;4972869;28;25084;-70
2022/07/03 10:30:20;;;;;;;3.88;1.13;;;22.60;99.90;;;;;;4968410;28;25125;-70
2022/07/03 10:32:48;;;;;;;2.03;0.95;;;22.50;99.90;;;;;;4977009;28;25116;-71
2022/07/03 10:35:21;;;;;;;1.63;0.70;;;22.70;99.90;;;;;;4969060;28;25124;-72
2022/07/03 10:38:00;;;;;;;4.97;1.30;;;23.00;99.90;;;;;;4964775;28;25173;-70
2022/07/03 10:46:23;;;;;;;3.63;1.25;;;21.80;99.90;;;;;;4965452;28;25069;-72
2022/07/03 10:49:05;;;;;;;3.75;1.10;;;22.00;99.90;;;;;;4971601;28;25113;-72
2022/07/03 10:51:50;;;;;;;;;;;22.00;99.90;;;;;;4965020;28;25064;-71
2022/07/03 10:54:38;;;;;;;2.83;1.10;;;22.00;99.90;;;;;;4964614;28;25072;-72
2022/07/03 10:57:04;;;;;;;3.75;0.90;;;22.00;99.90;;;;;;4969254;28;25137;-71
2022/07/03 10:59:36;;;;;;;4.57;1.50;;;22.20;99.90;;;;;;4968922;28;25076;-72
2022/07/03 11:02:18;;;;;;;2.35;0.93;;;22.40;99.90;;;;;;4969258;28;25054;-73
2022/07/03 11:04:59;;;;;;;6.00;1.48;;;22.70;99.90;;;;;;4965117;28;25065;-71
2022/07/03 11:07:28;;;;;;;2.45;0.93;;;23.00;99.90;;;;;;4967145;28;25068;-72
2022/07/03 11:10:12;;;;;;;3.80;1.02;;;22.90;99.90;;;;;;4967523;28;25166;-72
2022/07/03 11:12:53;;;;;;;0.93;0.80;;;23.40;99.90;;;;;;4981846;28;25122;-71
2022/07/03 11:15:31;;;;;;;3.28;0.88;;;23.70;99.90;;;;;;4971652;28;25067;-73
2022/07/03 11:18:12;;;;;;;1.10;0.88;;;23.80;99.90;;;;;;4963277;28;25043;-70
2022/07/03 11:20:44;;;;;;;2.08;1.10;;;23.40;99.80;;;;;;4969946;28;25107;-71
2022/07/03 11:23:10;;;;;;;3.28;0.93;;;23.20;99.00;;;;;;4967956;28;25136;-70
2022/07/03 11:25:49;;;;;;;5.03;1.10;;;23.10;99.90;;;;;;4983499;28;25105;-73
2022/07/03 11:28:33;;;;;;;1.65;1.08;;;22.70;99.90;;;;;;4976447;28;25123;-73
2022/07/03 11:31:13;;;;;;;4.63;1.17;;;22.10;99.90;;;;;;4964245;28;25056;-70
2022/07/03 11:33:42;;;;;;;2.25;1.45;;;21.90;99.90;;;;;;4968162;28;25059;-71
2022/07/03 11:36:16;;;;;;;2.65;1.50;;;22.10;99.90;;;;;;4973513;28;25141;-68
2022/07/03 11:39:02;;;;;;;4.13;1.40;;;22.10;99.90;;;;;;4972117;28;25115;-72
2022/07/03 11:41:41;;;;;;;4.30;2.00;;;21.90;99.90;;;;;;4968797;28;25075;-71
2022/07/03 11:44:08;;;;;;;5.35;1.88;;;21.70;99.90;;;;;;4972139;28;25064;-72
2022/07/03 11:46:36;;;;;;;3.72;1.60;;;21.90;99.90;;;;;;4972564;28;25070;-70
2022/07/03 11:49:09;;;;;;;4.03;1.63;;;21.80;99.90;;;;;;4975568;28;25103;-70
2022/07/03 11:51:35;;;;;;;2.67;1.45;;;21.60;99.90;;;;;;4982759;28;25107;-70
2022/07/03 11:54:01;;;;;;;2.60;1.45;;;21.80;99.90;;;;;;4968569;28;25056;-71
2022/07/03 11:56:28;;;;;;;3.50;1.20;;;22.40;99.90;;;;;;4980605;28;25061;-69
2022/07/03 11:58:58;;;;;;;5.13;1.30;;;22.60;99.90;;;;;;4977014;28;25127;-71
2022/07/03 12:01:24;;;;;;;3.05;1.20;;;23.20;99.90;;;;;;4972421;28;25096;-71
2022/07/03 12:03:49;;;;;;;5.60;1.10;;;22.90;99.90;;;;;;4986519;28;25089;-74
2022/07/03 12:06:16;;;;;;;3.70;1.25;;;23.00;99.90;;;;;;4977189;28;25121;-70
2022/07/03 12:08:45;;;;;;;5.00;1.35;;;23.30;99.90;;;;;;4978174;28;25124;-71
2022/07/03 12:11:15;;;;;;;6.07;1.50;;;23.50;99.90;;;;;;4984400;28;25058;-71
2022/07/03 12:13:42;;;;;;;6.63;1.25;;;23.00;99.90;;;;;;4992911;28;25134;-72
2022/07/03 12:16:15;;;;;;;15.75;3.00;;;22.30;99.90;;;;;;4986434;28;25091;-68
2022/07/03 12:18:51;;;;;;;1.55;0.90;;;22.30;99.90;;;;;;4979923;28;25058;-72
2022/07/03 12:21:19;;;;;;;3.47;1.25;;;22.40;99.90;;;;;;4974347;28;25112;-69
2022/07/03 12:23:54;;;;;;;4.97;1.30;;;22.50;99.90;;;;;;4976072;28;25078;-71
2022/07/03 12:26:30;;;;;;;3.80;1.40;;;22.40;99.90;;;;;;4983505;28;25131;-71
2022/07/03 12:29:05;;;;;;;7.32;1.52;;;22.20;99.90;;;;;;4969929;28;25060;-70
2022/07/03 12:31:32;;;;;;;2.70;1.10;;;22.10;99.90;;;;;;4977594;28;25080;-72
2022/07/03 12:33:58;;;;;;;3.05;1.00;;;21.90;99.90;;;;;;4972164;28;25120;-71
2022/07/03 12:36:24;;;;;;;3.90;1.10;;;22.10;99.90;;;;;;4981735;28;25065;-72
2022/07/03 12:38:52;;;;;;;4.30;1.33;;;21.70;99.90;;;;;;4980405;28;25075;-71
2022/07/03 12:41:19;;;;;;;2.30;1.27;;;21.40;99.90;;;;;;4979741;28;25062;-74
2022/07/03 12:43:47;;;;;;;5.80;1.85;;;21.20;99.90;;;;;;4976246;28;25078;-68
2022/07/03 12:46:19;;;;;;;5.70;0.90;;;21.70;99.90;;;;;;4977739;28;25057;-70
2022/07/03 12:48:47;;;;;;;3.38;1.17;;;21.90;99.90;;;;;;4978234;28;25062;-68
2022/07/03 12:51:13;;;;;;;4.25;1.15;;;21.80;99.90;;;;;;4969959;28;25156;-70
2022/07/03 12:53:39;;;;;;;5.18;1.17;;;21.60;99.90;;;;;;4982880;28;25060;-72
2022/07/03 12:56:07;;;;;;;5.15;1.15;;;21.30;99.90;;;;;;4971127;28;25111;-71
2022/07/03 13:01:30;;;;;;;2.90;1.40;;;21.30;99.90;;;;;;4970268;28;25094;-69
2022/07/03 13:03:56;;;;;;;2.75;0.90;;;21.40;99.90;;;;;;4967538;28;25101;-68
2022/07/03 13:06:23;;;;;;;2.50;1.13;;;21.70;99.90;;;;;;4971637;28;25058;-72
2022/07/03 13:09:00;;;;;;;4.82;1.30;;;22.10;99.90;;;;;;4976147;28;25115;-71
2022/07/03 13:11:34;;;;;;;6.72;1.48;;;22.50;99.90;;;;;;4979335;28;25105;-69
2022/07/03 13:14:07;;;;;;;5.18;1.23;;;22.00;99.90;;;;;;4973341;28;25093;-69